createdAt,value
2023-02-02T00:01:25.549Z,7.54
2023-02-02T00:03:56.029Z,7.44
2023-02-02T00:06:29.517Z,7.41
2023-02-02T00:08:58.933Z,7.47
2023-02-02T00:11:29.743Z,7.46
2023-02-02T00:13:57.482Z,7.44
2023-02-02T00:16:41.136Z,7.46
2023-02-02T00:19:12.924Z,7.49
2023-02-02T00:21:41.988Z,7.42
2023-02-02T00:24:13.361Z,7.56
2023-02-02T00:26:42.749Z,7.59
2023-02-02T00:29:16.127Z,7.50
2023-02-02T00:31:43.872Z,7.52
2023-02-02T00:34:13.703Z,7.54
2023-02-02T00:36:41.558Z,7.50
2023-02-02T00:39:10.485Z,7.53
2023-02-02T00:41:40.267Z,7.58
2023-02-02T00:44:27.040Z,7.45
2023-02-02T00:46:54.606Z,7.53
2023-02-02T00:49:24.044Z,7.56
2023-02-02T00:51:51.727Z,7.68
2023-02-02T00:54:19.405Z,7.55
2023-02-02T00:56:47.027Z,7.57
2023-02-02T00:59:14.667Z,7.53
2023-02-02T01:01:42.215Z,7.54
2023-02-02T01:04:09.919Z,7.50
2023-02-02T01:06:42.832Z,7.53
2023-02-02T01:09:10.489Z,7.60
2023-02-02T01:11:38.155Z,7.66
2023-02-02T01:14:05.960Z,7.56
2023-02-02T01:16:33.718Z,7.56
2023-02-02T01:19:01.405Z,7.57
2023-02-02T01:21:28.943Z,7.62
2023-02-02T01:23:57.905Z,7.56
2023-02-02T01:26:25.492Z,7.42
2023-02-02T01:28:53.071Z,7.44
2023-02-02T01:31:21.623Z,7.55
2023-02-02T01:33:50.920Z,7.58
2023-02-02T01:36:22.425Z,7.65
2023-02-02T01:38:50.816Z,7.55
2023-02-02T01:41:22.181Z,7.57
2023-02-02T01:43:56.261Z,7.62
2023-02-02T01:46:25.692Z,7.50
2023-02-02T01:49:01.006Z,7.38
2023-02-02T01:51:35.977Z,7.51
2023-02-02T01:54:07.083Z,7.53
2023-02-02T01:56:43.789Z,7.42
2023-02-02T01:59:13.456Z,7.50
2023-02-02T02:01:41.067Z,7.51
2023-02-02T02:04:08.678Z,7.44
2023-02-02T02:06:36.314Z,7.47
2023-02-02T02:09:05.811Z,7.32
2023-02-02T02:11:36.712Z,7.56
2023-02-02T02:14:24.086Z,7.51
2023-02-02T02:17:03.056Z,7.60
2023-02-02T02:20:28.174Z,7.58
2023-02-02T02:23:38.137Z,7.53
2023-02-02T02:26:37.494Z,7.57
2023-02-02T02:29:21.045Z,7.52
2023-02-02T02:32:08.519Z,7.48
2023-02-02T02:34:48.673Z,7.54
2023-02-02T02:37:24.834Z,7.53
2023-02-02T02:39:58.844Z,7.41
2023-02-02T02:42:30.875Z,7.53
2023-02-02T02:45:02.395Z,7.50
2023-02-02T02:47:33.222Z,7.48
2023-02-02T02:50:00.821Z,7.44
2023-02-02T02:52:28.561Z,7.56
2023-02-02T02:54:57.921Z,7.48
2023-02-02T02:57:49.868Z,7.41
2023-02-02T03:00:36.263Z,7.33
2023-02-02T03:03:13.704Z,7.24
2023-02-02T03:05:51.271Z,7.29
2023-02-02T03:08:25.521Z,7.27
2023-02-02T03:10:53.658Z,7.26
2023-02-02T03:13:21.258Z,7.29
2023-02-02T03:15:48.972Z,7.19
2023-02-02T03:18:21.211Z,7.20
2023-02-02T03:20:48.959Z,7.24
2023-02-02T03:23:16.592Z,7.18
2023-02-02T03:25:44.558Z,7.21
2023-02-02T03:28:12.639Z,7.21
2023-02-02T03:30:42.621Z,7.29
2023-02-02T03:33:12.779Z,7.21
2023-02-02T03:35:41.876Z,7.17
2023-02-02T03:38:10.865Z,7.25
2023-02-02T03:40:38.565Z,7.27
2023-02-02T03:43:06.257Z,7.22
2023-02-02T03:45:35.332Z,7.22
2023-02-02T03:48:05.206Z,7.29
2023-02-02T03:50:33.298Z,7.14
2023-02-02T03:53:02.219Z,7.22
2023-02-02T03:55:31.213Z,7.24
2023-02-02T03:57:58.747Z,7.25
2023-02-02T04:00:26.262Z,7.31
2023-02-02T04:02:55.050Z,7.24
2023-02-02T04:05:22.840Z,7.16
2023-02-02T04:07:50.621Z,7.15
2023-02-02T04:10:20.012Z,7.18
2023-02-02T04:12:47.670Z,7.19
2023-02-02T04:15:15.482Z,7.11
2023-02-02T04:17:43.374Z,7.15
2023-02-02T04:20:12.447Z,7.16
2023-02-02T04:22:40.091Z,7.24
2023-02-02T04:25:08.820Z,7.40
2023-02-02T04:27:37.722Z,7.32
2023-02-02T04:30:06.737Z,7.40
2023-02-02T04:32:34.264Z,7.36
2023-02-02T04:35:01.859Z,7.45
2023-02-02T04:37:31.809Z,7.50
2023-02-02T04:39:59.513Z,7.58
2023-02-02T04:42:27.310Z,7.52
2023-02-02T04:44:56.527Z,7.58
2023-02-02T04:47:24.098Z,7.53
2023-02-02T04:49:51.745Z,7.61
2023-02-02T04:52:19.350Z,7.49
2023-02-02T04:54:46.961Z,7.46
2023-02-02T04:57:14.593Z,7.62
2023-02-02T04:59:42.588Z,7.57
2023-02-02T05:02:11.535Z,7.51
2023-02-02T05:04:39.234Z,7.51
2023-02-02T05:07:06.924Z,7.49
2023-02-02T05:09:34.779Z,7.55
2023-02-02T05:12:02.393Z,7.61
2023-02-02T05:14:29.930Z,7.56
2023-02-02T05:16:57.632Z,7.62
2023-02-02T05:19:26.712Z,7.61
2023-02-02T05:21:54.737Z,7.60
2023-02-02T05:24:22.369Z,7.61
2023-02-02T05:26:53.033Z,7.57
2023-02-02T05:29:20.592Z,7.64
2023-02-02T05:31:48.605Z,7.56
2023-02-02T05:34:16.217Z,7.71
2023-02-02T05:36:45.229Z,7.70
2023-02-02T05:39:13.461Z,7.77
2023-02-02T05:41:41.055Z,7.75
2023-02-02T05:44:10.487Z,7.64
2023-02-02T05:46:38.005Z,7.59
2023-02-02T05:49:06.055Z,7.54
2023-02-02T05:51:39.998Z,7.48
2023-02-02T05:54:08.965Z,7.56
2023-02-02T05:56:36.717Z,7.46
2023-02-02T05:59:07.597Z,7.51
2023-02-02T06:01:35.749Z,7.52
2023-02-02T06:04:03.435Z,7.52
2023-02-02T06:06:31.188Z,7.45
2023-02-02T06:08:59.023Z,7.53
2023-02-02T06:11:35.091Z,7.43
2023-02-02T06:14:02.754Z,7.39
2023-02-02T06:16:30.795Z,7.35
2023-02-02T06:19:01.163Z,7.44
2023-02-02T06:21:31.149Z,7.33
2023-02-02T06:24:02.410Z,7.17
2023-02-02T06:26:31.444Z,7.10
2023-02-02T06:28:59.061Z,7.10
2023-02-02T06:31:26.965Z,7.15
2023-02-02T06:33:56.031Z,7.19
2023-02-02T06:36:25.996Z,7.14
2023-02-02T06:38:56.214Z,7.23
2023-02-02T06:41:24.937Z,7.26
2023-02-02T06:43:53.894Z,7.24
2023-02-02T06:46:21.563Z,7.31
2023-02-02T06:48:49.281Z,7.37
2023-02-02T06:51:17.054Z,7.35
2023-02-02T06:53:44.756Z,7.32
2023-02-02T06:56:14.290Z,7.34
2023-02-02T06:58:43.185Z,7.39
2023-02-02T07:01:14.698Z,7.46
2023-02-02T07:03:42.553Z,7.40
2023-02-02T07:06:18.305Z,7.44
2023-02-02T07:08:47.624Z,7.41
2023-02-02T07:11:30.171Z,7.54
2023-02-02T07:13:58.102Z,7.50
2023-02-02T07:16:30.351Z,7.60
2023-02-02T07:18:58.161Z,7.60
2023-02-02T07:21:28.227Z,7.66
2023-02-02T07:23:56.032Z,7.62
2023-02-02T07:26:23.662Z,7.64
2023-02-02T07:28:51.503Z,7.68
2023-02-02T07:31:21.740Z,7.79
2023-02-02T07:33:51.313Z,7.74
2023-02-02T07:36:20.584Z,7.74
2023-02-02T07:38:49.534Z,7.78
2023-02-02T07:41:18.073Z,7.78
2023-02-02T07:43:47.991Z,7.84
2023-02-02T07:46:16.363Z,7.81
2023-02-02T07:48:44.206Z,7.81
2023-02-02T07:51:16.536Z,7.79
2023-02-02T07:53:45.434Z,7.75
2023-02-02T07:56:14.924Z,7.78
2023-02-02T07:58:42.967Z,7.85
2023-02-02T08:03:55.372Z,7.87
2023-02-02T08:06:30.607Z,7.81
2023-02-02T08:08:58.834Z,7.83
2023-02-02T08:11:27.482Z,7.89
2023-02-02T08:13:57.063Z,8.05
2023-02-02T08:16:26.447Z,7.88
2023-02-02T08:18:54.328Z,8.03
2023-02-02T08:21:22.726Z,8.01
2023-02-02T08:23:53.616Z,8.00
2023-02-02T08:26:23.153Z,8.11
2023-02-02T08:28:54.652Z,8.01
2023-02-02T08:31:24.615Z,8.04
2023-02-02T08:33:53.911Z,8.12
2023-02-02T08:36:23.270Z,8.09
2023-02-02T08:38:53.036Z,8.16
2023-02-02T08:41:24.062Z,8.17
2023-02-02T08:43:52.533Z,8.21
2023-02-02T08:46:21.925Z,8.23
2023-02-02T08:48:50.853Z,8.20
2023-02-02T08:51:20.837Z,8.16
2023-02-02T08:53:48.767Z,8.15
2023-02-02T08:56:23.384Z,8.19
2023-02-02T08:58:54.956Z,8.32
2023-02-02T09:01:24.351Z,8.40
2023-02-02T09:03:54.933Z,8.40
2023-02-02T09:06:23.601Z,8.45
2023-02-02T09:08:51.255Z,8.44
2023-02-02T09:11:20.881Z,8.50
2023-02-02T09:13:50.541Z,8.49
2023-02-02T09:16:19.925Z,8.53
2023-02-02T09:18:48.641Z,8.56
2023-02-02T09:21:18.400Z,8.59
2023-02-02T09:23:47.691Z,8.49
2023-02-02T09:26:17.514Z,8.45
2023-02-02T09:28:49.169Z,8.58
2023-02-02T09:31:17.502Z,8.42
2023-02-02T09:33:45.759Z,8.49
2023-02-02T09:36:16.471Z,8.42
2023-02-02T09:38:44.871Z,8.52
2023-02-02T09:41:48.105Z,8.49
2023-02-02T09:44:27.380Z,8.50
2023-02-02T09:47:06.091Z,8.53
2023-02-02T09:49:40.995Z,8.51
2023-02-02T09:52:17.920Z,8.42
2023-02-02T09:54:49.340Z,8.42
2023-02-02T09:57:23.775Z,8.49
2023-02-02T09:59:56.309Z,8.46
2023-02-02T10:02:29.907Z,8.54
2023-02-02T10:05:03.114Z,8.53
2023-02-02T10:07:36.702Z,8.55
2023-02-02T10:10:17.043Z,8.47
2023-02-02T10:12:55.019Z,8.61
2023-02-02T10:15:38.247Z,8.65
2023-02-02T10:18:33.511Z,8.67
2023-02-02T10:21:05.158Z,8.52
2023-02-02T10:23:38.840Z,8.63
2023-02-02T10:26:15.677Z,8.65
2023-02-02T10:28:46.123Z,8.63
2023-02-02T10:31:36.929Z,8.83
2023-02-02T10:34:14.762Z,8.81
2023-02-02T10:37:01.073Z,8.86
2023-02-02T10:39:40.577Z,8.89
2023-02-02T10:42:22.746Z,9.01
2023-02-02T10:44:54.044Z,9.00
2023-02-02T10:47:26.820Z,9.19
2023-02-02T10:50:03.747Z,9.26
2023-02-02T10:52:36.874Z,9.22
2023-02-02T10:55:14.086Z,9.30
2023-02-02T10:57:54.070Z,9.20
2023-02-02T11:00:25.819Z,9.26
2023-02-02T11:02:55.978Z,9.16
2023-02-02T11:05:43.820Z,9.17
2023-02-02T11:08:15.659Z,9.19
2023-02-02T11:10:47.289Z,9.33
2023-02-02T11:13:29.470Z,9.49
2023-02-02T11:16:20.114Z,9.43
2023-02-02T11:18:51.928Z,9.33
2023-02-02T11:21:36.919Z,9.47
2023-02-02T11:24:08.481Z,9.55
2023-02-02T11:26:47.133Z,9.52
2023-02-02T11:29:19.382Z,9.49
2023-02-02T11:31:47.531Z,9.31
2023-02-02T11:34:22.612Z,9.18
2023-02-02T11:37:13.613Z,9.19
2023-02-02T11:39:42.089Z,9.05
2023-02-02T11:42:17.472Z,9.15
2023-02-02T11:44:48.723Z,9.14
2023-02-02T11:47:22.778Z,9.17
2023-02-02T11:49:52.615Z,9.38
2023-02-02T11:52:24.692Z,9.28
2023-02-02T11:54:57.609Z,9.28
2023-02-02T11:57:28.263Z,9.34
2023-02-02T12:00:16.045Z,9.39
2023-02-02T12:03:03.560Z,9.19
2023-02-02T12:05:39.224Z,9.19
2023-02-02T12:08:11.067Z,9.15
2023-02-02T12:10:47.963Z,9.18
2023-02-02T12:13:25.481Z,9.30
2023-02-02T12:16:04.577Z,9.27
2023-02-02T12:18:45.771Z,9.30
2023-02-02T12:21:25.942Z,9.38
2023-02-02T12:24:22.188Z,9.37
2023-02-02T12:26:57.128Z,9.36
2023-02-02T12:29:39.826Z,9.46
2023-02-02T12:32:19.744Z,9.47
2023-02-02T12:35:09.749Z,9.37
2023-02-02T12:37:53.375Z,9.35
2023-02-02T12:40:40.505Z,9.54
2023-02-02T12:43:20.040Z,9.44
2023-02-02T12:46:10.661Z,9.49
2023-02-02T12:48:51.201Z,9.56
2023-02-02T12:51:35.362Z,9.44
2023-02-02T12:54:32.894Z,9.55
2023-02-02T12:57:12.832Z,9.53
2023-02-02T13:00:07.781Z,9.44
2023-02-02T13:02:42.454Z,9.37
2023-02-02T13:05:35.848Z,9.41
2023-02-02T13:08:11.420Z,9.46
2023-02-02T13:10:48.936Z,9.83
2023-02-02T13:13:20.643Z,9.81
2023-02-02T13:15:53.216Z,9.86
2023-02-02T13:18:26.008Z,9.75
2023-02-02T13:20:59.209Z,9.66
2023-02-02T13:23:31.893Z,9.57
2023-02-02T13:26:10.753Z,9.46
2023-02-02T13:28:44.303Z,9.50
2023-02-02T13:31:18.943Z,9.50
2023-02-02T13:33:51.152Z,9.66
2023-02-02T13:36:26.115Z,9.66
2023-02-02T13:38:58.521Z,9.70
2023-02-02T13:41:29.321Z,9.71
2023-02-02T13:44:06.413Z,9.71
2023-02-02T13:46:43.162Z,9.60
2023-02-02T13:49:26.692Z,9.62
2023-02-02T13:52:20.021Z,9.73
2023-02-02T13:55:19.457Z,9.72
2023-02-02T13:58:28.891Z,9.96
2023-02-02T14:01:02.970Z,10.04
2023-02-02T14:03:38.625Z,9.92
2023-02-02T14:06:15.936Z,10.04
2023-02-02T14:08:50.190Z,9.88
2023-02-02T14:11:25.869Z,9.72
2023-02-02T14:14:19.324Z,9.77
2023-02-02T14:16:53.702Z,9.76
2023-02-02T14:19:49.292Z,9.90
2023-02-02T14:22:40.069Z,9.91
2023-02-02T14:25:45.167Z,9.99
2023-02-02T14:28:15.530Z,10.01
2023-02-02T14:30:44.545Z,10.11
2023-02-02T14:33:28.166Z,9.99
2023-02-02T14:36:04.417Z,9.98
2023-02-02T14:38:51.103Z,9.98
2023-02-02T14:41:56.968Z,9.93
2023-02-02T14:44:26.346Z,10.31
2023-02-02T14:46:55.636Z,10.15
2023-02-02T14:49:29.013Z,10.21
2023-02-02T14:52:03.177Z,10.12
2023-02-02T14:54:36.921Z,10.06
2023-02-02T14:57:20.591Z,9.97
2023-02-02T14:59:48.969Z,10.01
2023-02-02T15:02:21.852Z,9.90
2023-02-02T15:04:50.409Z,9.63
2023-02-02T15:07:41.179Z,9.59
2023-02-02T15:10:11.409Z,9.53
2023-02-02T15:12:43.058Z,9.49
2023-02-02T15:15:20.082Z,9.52
2023-02-02T15:18:08.529Z,9.50
2023-02-02T15:20:43.181Z,9.41
2023-02-02T15:23:24.403Z,9.43
2023-02-02T15:25:57.764Z,9.52
2023-02-02T15:28:30.613Z,9.40
2023-02-02T15:31:03.803Z,9.41
2023-02-02T15:33:37.234Z,9.41
2023-02-02T15:36:07.985Z,9.53
2023-02-02T15:38:39.265Z,9.39
2023-02-02T15:41:14.269Z,9.49
2023-02-02T15:43:41.898Z,9.43
2023-02-02T15:46:13.796Z,9.27
2023-02-02T15:48:43.935Z,9.25
2023-02-02T15:51:20.238Z,9.35
2023-02-02T15:53:51.748Z,9.38
2023-02-02T15:56:29.247Z,9.51
2023-02-02T15:58:58.479Z,9.44
2023-02-02T16:01:27.428Z,9.47
2023-02-02T16:04:08.302Z,9.44
2023-02-02T16:06:36.431Z,9.56
2023-02-02T16:09:04.914Z,9.60
2023-02-02T16:11:32.961Z,9.60
2023-02-02T16:14:04.111Z,9.60
2023-02-02T16:16:33.682Z,9.56
2023-02-02T16:19:14.708Z,9.62
2023-02-02T16:21:47.588Z,9.45
2023-02-02T16:24:19.854Z,9.47
2023-02-02T16:26:47.458Z,9.54
2023-02-02T16:29:18.473Z,9.49
2023-02-02T16:31:47.689Z,9.48
2023-02-02T16:34:18.821Z,9.50
2023-02-02T16:37:06.274Z,9.38
2023-02-02T16:39:34.366Z,9.45
2023-02-02T16:42:11.956Z,9.44
2023-02-02T16:44:42.864Z,9.34
2023-02-02T16:47:41.493Z,9.39
2023-02-02T16:50:28.440Z,9.36
2023-02-02T16:53:00.900Z,9.34
2023-02-02T16:55:47.979Z,9.27
2023-02-02T16:58:22.309Z,9.28
2023-02-02T17:01:14.140Z,9.25
2023-02-02T17:03:49.810Z,9.25
2023-02-02T17:06:26.115Z,9.32
2023-02-02T17:08:53.770Z,9.37
2023-02-02T17:11:26.236Z,9.33
2023-02-02T17:13:55.149Z,9.33
2023-02-02T17:16:24.807Z,9.34
2023-02-02T17:18:55.038Z,9.31
2023-02-02T17:21:26.428Z,9.35
2023-02-02T17:23:54.991Z,9.32
2023-02-02T17:26:22.678Z,9.22
2023-02-02T17:29:05.500Z,9.34
2023-02-02T17:31:33.358Z,9.38
2023-02-02T17:34:01.297Z,9.40
2023-02-02T17:36:33.406Z,9.44
2023-02-02T17:39:00.990Z,9.39
2023-02-02T17:41:28.635Z,9.40
2023-02-02T17:43:56.315Z,9.36
2023-02-02T17:46:24.240Z,9.41
2023-02-02T17:48:51.876Z,9.56
2023-02-02T17:51:19.491Z,9.47
2023-02-02T17:53:48.548Z,9.42
2023-02-02T17:56:16.382Z,9.51
2023-02-02T17:58:44.161Z,9.35
2023-02-02T18:01:13.165Z,9.30
2023-02-02T18:03:44.218Z,9.24
2023-02-02T18:06:12.672Z,9.18
2023-02-02T18:08:40.791Z,9.12
2023-02-02T18:11:12.381Z,9.11
2023-02-02T18:13:42.382Z,9.16
2023-02-02T18:16:10.878Z,9.07
2023-02-02T18:18:38.973Z,9.02
2023-02-02T18:21:10.015Z,9.11
2023-02-02T18:23:38.350Z,9.04
2023-02-02T18:26:18.695Z,9.17
2023-02-02T18:28:50.785Z,9.09
2023-02-02T18:31:20.739Z,9.09
2023-02-02T18:33:48.780Z,9.08
2023-02-02T18:36:27.077Z,9.07
2023-02-02T18:38:58.843Z,9.06
2023-02-02T18:41:28.845Z,9.00
2023-02-02T18:43:56.574Z,9.00
2023-02-02T18:46:24.610Z,8.94
2023-02-02T18:48:52.214Z,8.93
2023-02-02T18:51:21.840Z,9.00
2023-02-02T18:53:50.222Z,8.95
2023-02-02T18:56:18.073Z,9.02
2023-02-02T18:58:46.980Z,9.01
2023-02-02T19:01:16.553Z,8.96
2023-02-02T19:03:48.090Z,8.92
2023-02-02T19:06:33.356Z,8.90
2023-02-02T19:09:00.949Z,8.84
2023-02-02T19:11:35.843Z,8.85
2023-02-02T19:14:12.395Z,8.94
2023-02-02T19:16:40.209Z,8.95
2023-02-02T19:19:14.157Z,9.01
2023-02-02T19:21:42.127Z,8.92
2023-02-02T19:24:13.542Z,9.05
2023-02-02T19:26:48.563Z,9.07
2023-02-02T19:29:20.222Z,9.05
2023-02-02T19:31:53.272Z,8.99
2023-02-02T19:34:23.295Z,8.93
2023-02-02T19:36:52.129Z,8.99
2023-02-02T19:39:24.090Z,8.96
2023-02-02T19:41:54.769Z,8.87
2023-02-02T19:44:24.825Z,8.87
2023-02-02T19:46:53.786Z,8.89
2023-02-02T19:49:30.391Z,8.91
2023-02-02T19:51:59.178Z,8.86
2023-02-02T19:54:34.874Z,8.89
2023-02-02T19:57:15.517Z,8.85
2023-02-02T19:59:50.525Z,8.83
2023-02-02T20:02:39.366Z,8.82
2023-02-02T20:05:18.304Z,8.72
2023-02-02T20:07:46.205Z,8.77
2023-02-02T20:10:21.205Z,8.63
2023-02-02T20:12:49.307Z,8.59
2023-02-02T20:15:32.413Z,8.65
2023-02-02T20:18:02.054Z,8.55
2023-02-02T20:20:34.357Z,8.60
2023-02-02T20:23:02.195Z,8.65
2023-02-02T20:25:32.303Z,8.64
2023-02-02T20:28:01.635Z,8.75
2023-02-02T20:30:32.061Z,8.69
2023-02-02T20:33:02.924Z,8.56
2023-02-02T20:35:37.043Z,8.60
2023-02-02T20:38:18.823Z,8.64
2023-02-02T20:40:50.081Z,8.62
2023-02-02T20:43:17.691Z,8.55
2023-02-02T20:45:46.607Z,8.64
2023-02-02T20:48:15.555Z,8.72
2023-02-02T20:50:46.512Z,8.79
2023-02-02T20:53:16.423Z,8.77
2023-02-02T20:55:44.542Z,8.72
2023-02-02T20:58:12.358Z,8.65
2023-02-02T21:00:40.274Z,8.58
2023-02-02T21:03:09.167Z,8.45
2023-02-02T21:05:36.908Z,8.36
2023-02-02T21:08:05.229Z,8.33
2023-02-02T21:10:32.859Z,8.37
2023-02-02T21:13:00.458Z,8.28
2023-02-02T21:15:28.006Z,8.32
2023-02-02T21:17:58.024Z,8.39
2023-02-02T21:20:27.252Z,8.35
2023-02-02T21:22:56.690Z,8.35
2023-02-02T21:25:24.397Z,8.45
2023-02-02T21:27:52.145Z,8.43
2023-02-02T21:30:20.008Z,8.44
2023-02-02T21:32:48.927Z,8.34
2023-02-02T21:35:16.706Z,8.32
2023-02-02T21:37:47.182Z,8.32
2023-02-02T21:40:22.415Z,8.33
2023-02-02T21:42:51.067Z,8.19
2023-02-02T21:45:35.840Z,8.21
2023-02-02T21:48:07.135Z,8.32
2023-02-02T21:50:36.656Z,8.42
2023-02-02T21:53:22.472Z,8.50
2023-02-02T21:55:54.534Z,8.46
2023-02-02T21:58:25.400Z,8.45
2023-02-02T22:00:55.880Z,8.42
2023-02-02T22:03:27.838Z,8.35
2023-02-02T22:06:26.164Z,8.34
2023-02-02T22:09:01.837Z,8.42
2023-02-02T22:11:35.671Z,8.47
2023-02-02T22:14:16.466Z,8.44
2023-02-02T22:16:50.658Z,8.40
2023-02-02T22:19:34.093Z,8.48
2023-02-02T22:22:15.053Z,8.45
2023-02-02T22:24:45.545Z,8.46
2023-02-02T22:27:19.817Z,8.46
2023-02-02T22:29:47.476Z,8.32
2023-02-02T22:32:15.057Z,8.49
2023-02-02T22:34:42.621Z,8.38
2023-02-02T22:37:10.362Z,8.32
2023-02-02T22:39:42.580Z,8.39
2023-02-02T22:42:11.579Z,8.45
2023-02-02T22:44:39.269Z,8.33
2023-02-02T22:47:06.931Z,8.34
2023-02-02T22:49:34.496Z,8.39
2023-02-02T22:52:02.020Z,8.34
2023-02-02T22:54:30.896Z,8.41
2023-02-02T22:56:58.475Z,8.35
2023-02-02T22:59:27.368Z,8.30
2023-02-02T23:01:54.938Z,8.40
2023-02-02T23:04:22.876Z,8.52
2023-02-02T23:06:50.454Z,8.53
2023-02-02T23:09:18.282Z,8.45
2023-02-02T23:11:48.058Z,8.44
2023-02-02T23:14:16.978Z,8.32
2023-02-02T23:16:47.160Z,8.43
2023-02-02T23:19:14.712Z,8.46
2023-02-02T23:21:42.402Z,8.32
2023-02-02T23:24:10.294Z,8.31
2023-02-02T23:26:37.852Z,8.35
2023-02-02T23:29:06.664Z,8.25
2023-02-02T23:31:34.343Z,8.29
2023-02-02T23:34:03.286Z,8.44
2023-02-02T23:36:30.917Z,8.35
2023-02-02T23:38:58.630Z,8.28
2023-02-02T23:41:26.321Z,8.23
2023-02-02T23:43:54.308Z,8.39
2023-02-02T23:46:22.361Z,8.32
2023-02-02T23:48:53.581Z,8.34
2023-02-02T23:51:22.530Z,8.47
2023-02-02T23:53:50.125Z,8.38
2023-02-02T23:56:18.356Z,8.39
2023-02-02T23:58:45.911Z,8.45
